createdAt,value
2023-04-09T00:00:24.109Z,7.50
2023-04-09T00:01:07.432Z,7.20
2023-04-09T00:01:49.539Z,7.80
2023-04-09T00:02:31.626Z,7.00
2023-04-09T00:03:13.628Z,7.00
2023-04-09T00:03:55.591Z,7.10
2023-04-09T00:04:37.481Z,7.00
2023-04-09T00:05:19.507Z,7.30
2023-04-09T00:06:01.442Z,6.80
2023-04-09T00:06:43.215Z,7.30
2023-04-09T00:07:25.026Z,7.10
2023-04-09T00:08:07.411Z,7.10
2023-04-09T00:08:49.399Z,7.10
2023-04-09T00:09:32.051Z,7.10
2023-04-09T00:10:13.926Z,7.70
2023-04-09T00:10:57.363Z,7.30
2023-04-09T00:11:39.240Z,6.90
2023-04-09T00:12:21.151Z,7.10
2023-04-09T00:13:03.224Z,6.80
2023-04-09T00:13:45.067Z,7.10
2023-04-09T00:14:28.968Z,7.10
2023-04-09T00:15:15.048Z,6.60
2023-04-09T00:16:02.702Z,7.00
2023-04-09T00:16:44.785Z,6.90
2023-04-09T00:17:26.700Z,7.10
2023-04-09T00:18:08.605Z,6.70
2023-04-09T00:18:50.892Z,6.80
2023-04-09T00:19:33.298Z,6.70
2023-04-09T00:20:15.121Z,6.80
2023-04-09T00:20:58.949Z,6.70
2023-04-09T00:21:41.086Z,6.80
2023-04-09T00:22:25.401Z,6.60
2023-04-09T00:23:07.243Z,6.60
2023-04-09T00:23:49.235Z,6.60
2023-04-09T00:24:31.312Z,6.60
2023-04-09T00:25:13.247Z,6.80
2023-04-09T00:25:55.250Z,6.70
2023-04-09T00:26:37.105Z,6.90
2023-04-09T00:27:19.260Z,6.90
2023-04-09T00:28:01.202Z,6.70
2023-04-09T00:28:43.303Z,7.90
2023-04-09T00:29:27.253Z,6.90
2023-04-09T00:30:09.855Z,6.80
2023-04-09T00:30:51.815Z,6.60
2023-04-09T00:31:33.860Z,6.50
2023-04-09T00:32:15.744Z,6.60
2023-04-09T00:33:00.320Z,6.60
2023-04-09T00:33:44.424Z,6.70
2023-04-09T00:34:26.354Z,6.50
2023-04-09T00:35:09.339Z,6.30
2023-04-09T00:35:51.508Z,6.50
2023-04-09T00:36:33.364Z,6.60
2023-04-09T00:37:15.552Z,6.20
2023-04-09T00:37:57.379Z,6.70
2023-04-09T00:38:39.407Z,6.50
2023-04-09T00:39:21.337Z,6.40
2023-04-09T00:40:03.502Z,6.60
2023-04-09T00:40:54.406Z,6.50
2023-04-09T00:41:36.324Z,6.60
2023-04-09T00:42:18.327Z,6.40
2023-04-09T00:43:01.266Z,6.70
2023-04-09T00:43:43.272Z,6.30
2023-04-09T00:44:25.833Z,6.10
2023-04-09T00:45:08.290Z,6.50
2023-04-09T00:45:50.474Z,6.40
2023-04-09T00:46:32.642Z,6.60
2023-04-09T00:47:14.729Z,6.50
2023-04-09T00:47:56.786Z,6.50
2023-04-09T00:48:39.396Z,7.40
2023-04-09T00:49:22.388Z,6.60
2023-04-09T00:50:04.439Z,6.40
2023-04-09T00:50:46.401Z,6.50
2023-04-09T00:51:28.744Z,6.40
2023-04-09T00:52:11.266Z,6.40
2023-04-09T00:52:55.466Z,6.50
2023-04-09T00:53:37.386Z,6.70
2023-04-09T00:54:19.551Z,6.70
2023-04-09T00:55:03.927Z,6.70
2023-04-09T00:55:46.308Z,6.60
2023-04-09T00:56:29.935Z,6.60
2023-04-09T00:57:12.414Z,6.90
2023-04-09T00:57:54.449Z,6.50
2023-04-09T00:58:36.858Z,6.30
2023-04-09T00:59:19.930Z,6.60
2023-04-09T01:00:04.732Z,6.50
2023-04-09T01:00:46.847Z,6.50
2023-04-09T01:01:29.105Z,6.80
2023-04-09T01:02:11.256Z,6.70
2023-04-09T01:02:53.972Z,6.60
2023-04-09T01:03:36.589Z,6.70
2023-04-09T01:04:19.432Z,6.90
2023-04-09T01:05:01.436Z,7.60
2023-04-09T01:06:09.513Z,6.80
2023-04-09T01:06:55.959Z,6.70
2023-04-09T01:07:54.957Z,6.90
2023-04-09T01:08:49.148Z,6.80
2023-04-09T01:09:39.298Z,6.90
2023-04-09T01:10:41.877Z,6.80
2023-04-09T01:11:43.690Z,6.70
2023-04-09T01:12:38.579Z,6.70
2023-04-09T01:13:30.820Z,6.90
2023-04-09T01:14:24.279Z,7.00
2023-04-09T01:15:11.369Z,6.60
2023-04-09T01:15:56.875Z,6.60
2023-04-09T01:16:44.713Z,6.80
2023-04-09T01:17:36.120Z,6.80
2023-04-09T01:18:24.627Z,6.90
2023-04-09T01:19:39.520Z,7.10
2023-04-09T01:20:41.431Z,6.80
2023-04-09T01:21:27.541Z,6.90
2023-04-09T01:22:34.831Z,7.00
2023-04-09T01:23:19.778Z,7.00
2023-04-09T01:24:36.205Z,7.00
2023-04-09T01:25:25.745Z,6.80
2023-04-09T01:26:16.922Z,6.50
2023-04-09T01:27:09.020Z,6.80
2023-04-09T01:28:04.740Z,6.80
2023-04-09T01:28:50.719Z,6.70
2023-04-09T01:29:35.686Z,6.90
2023-04-09T01:30:18.866Z,6.80
2023-04-09T01:31:20.732Z,7.00
2023-04-09T01:32:04.917Z,6.70
2023-04-09T01:32:47.160Z,7.00
2023-04-09T01:33:31.682Z,6.70
2023-04-09T01:34:14.987Z,6.90
2023-04-09T01:34:57.179Z,6.60
2023-04-09T01:35:41.572Z,6.90
2023-04-09T01:36:26.526Z,7.00
2023-04-09T01:37:09.650Z,6.60
2023-04-09T01:37:53.218Z,6.90
2023-04-09T01:38:41.295Z,6.90
2023-04-09T01:39:23.682Z,6.90
2023-04-09T01:40:07.062Z,6.50
2023-04-09T01:40:50.083Z,6.90
2023-04-09T01:41:34.433Z,6.60
2023-04-09T01:42:17.781Z,6.70
2023-04-09T01:43:01.355Z,6.60
2023-04-09T01:43:43.922Z,6.60
2023-04-09T01:44:27.635Z,6.50
2023-04-09T01:45:11.779Z,6.50
2023-04-09T01:45:55.152Z,6.70
2023-04-09T01:46:39.727Z,6.60
2023-04-09T01:47:24.453Z,6.60
2023-04-09T01:48:06.678Z,6.60
2023-04-09T01:48:49.899Z,6.50
2023-04-09T01:49:32.669Z,6.80
2023-04-09T01:50:14.982Z,6.50
2023-04-09T01:50:58.060Z,6.60
2023-04-09T01:51:40.251Z,6.70
2023-04-09T01:52:22.227Z,6.70
2023-04-09T01:53:04.301Z,6.80
2023-04-09T01:53:46.554Z,6.60
2023-04-09T01:54:30.673Z,6.70
2023-04-09T01:55:14.784Z,6.80
2023-04-09T01:55:56.841Z,6.80
2023-04-09T01:56:47.177Z,6.80
2023-04-09T01:57:29.140Z,6.60
2023-04-09T01:58:11.668Z,6.60
2023-04-09T01:58:53.924Z,6.40
2023-04-09T01:59:35.966Z,6.70
2023-04-09T02:00:17.800Z,6.70
2023-04-09T02:01:12.160Z,6.90
2023-04-09T02:02:01.428Z,6.70
2023-04-09T02:03:22.843Z,6.70
2023-04-09T02:04:16.617Z,6.80
2023-04-09T02:05:01.855Z,6.50
2023-04-09T02:05:54.506Z,6.50
2023-04-09T02:06:59.650Z,6.90
2023-04-09T02:07:46.816Z,6.50
2023-04-09T02:08:28.913Z,6.50
2023-04-09T02:09:12.319Z,6.80
2023-04-09T02:09:55.619Z,6.60
2023-04-09T02:10:39.611Z,7.40
2023-04-09T02:11:25.667Z,6.60
2023-04-09T02:12:12.598Z,6.60
2023-04-09T02:12:55.626Z,6.80
2023-04-09T02:13:40.675Z,6.80
2023-04-09T02:14:23.951Z,6.60
2023-04-09T02:15:07.625Z,6.80
2023-04-09T02:15:50.933Z,6.90
2023-04-09T02:16:34.073Z,6.50
2023-04-09T02:17:15.903Z,6.80
2023-04-09T02:17:57.846Z,6.50
2023-04-09T02:18:39.803Z,6.50
2023-04-09T02:19:23.911Z,6.70
2023-04-09T02:20:09.117Z,6.40
2023-04-09T02:20:52.096Z,6.50
2023-04-09T02:21:34.310Z,6.60
2023-04-09T02:22:17.190Z,6.50
2023-04-09T02:22:59.231Z,6.60
2023-04-09T02:23:41.448Z,6.30
2023-04-09T02:24:23.298Z,6.50
2023-04-09T02:25:05.948Z,6.50
2023-04-09T02:25:50.610Z,6.50
2023-04-09T02:26:32.409Z,6.50
2023-04-09T02:27:14.413Z,6.60
2023-04-09T02:27:56.322Z,6.20
2023-04-09T02:28:38.381Z,6.50
2023-04-09T02:29:20.282Z,6.50
2023-04-09T02:30:02.249Z,6.40
2023-04-09T02:30:44.284Z,6.70
2023-04-09T02:31:26.395Z,6.50
2023-04-09T02:32:08.836Z,6.70
2023-04-09T02:32:50.905Z,6.50
2023-04-09T02:33:32.902Z,6.60
2023-04-09T02:34:14.744Z,6.80
2023-04-09T02:34:56.540Z,6.40
2023-04-09T02:35:38.419Z,6.60
2023-04-09T02:36:20.231Z,6.60
2023-04-09T02:37:02.018Z,6.50
2023-04-09T02:37:43.893Z,7.20
2023-04-09T02:38:25.955Z,6.30
2023-04-09T02:39:07.839Z,6.40
2023-04-09T02:39:49.596Z,6.40
2023-04-09T02:40:31.401Z,6.50
2023-04-09T02:41:13.383Z,6.10
2023-04-09T02:41:56.227Z,6.40
2023-04-09T02:42:38.428Z,6.20
2023-04-09T02:43:20.389Z,6.30
2023-04-09T02:44:02.119Z,6.50
2023-04-09T02:44:44.440Z,6.90
2023-04-09T02:45:26.390Z,7.30
2023-04-09T02:46:08.918Z,6.40
2023-04-09T02:46:52.178Z,6.20
2023-04-09T02:47:34.058Z,6.40
2023-04-09T02:48:15.937Z,6.50
2023-04-09T02:48:57.890Z,6.60
2023-04-09T02:49:39.836Z,6.20
2023-04-09T02:50:23.775Z,6.60
2023-04-09T02:51:06.829Z,6.30
2023-04-09T02:51:49.015Z,6.60
2023-04-09T02:52:30.868Z,6.20
2023-04-09T02:53:14.983Z,6.50
2023-04-09T02:53:59.076Z,6.10
2023-04-09T02:54:40.987Z,6.60
2023-04-09T02:55:23.006Z,6.50
2023-04-09T02:56:05.023Z,5.90
2023-04-09T02:56:46.877Z,6.20
2023-04-09T02:57:29.206Z,6.20
2023-04-09T02:58:11.430Z,6.20
2023-04-09T02:58:54.375Z,6.30
2023-04-09T02:59:38.872Z,6.30
2023-04-09T03:00:20.902Z,7.30
2023-04-09T03:01:02.828Z,5.90
2023-04-09T03:01:44.679Z,6.10
2023-04-09T03:02:29.228Z,6.00
2023-04-09T03:03:11.574Z,6.10
2023-04-09T03:03:56.288Z,6.30
2023-04-09T03:04:38.987Z,6.30
2023-04-09T03:05:21.165Z,6.20
2023-04-09T03:06:03.357Z,6.00
2023-04-09T03:06:45.241Z,6.20
2023-04-09T03:07:27.065Z,6.00
2023-04-09T03:08:08.993Z,6.00
2023-04-09T03:08:51.230Z,6.10
2023-04-09T03:09:33.891Z,5.90
2023-04-09T03:10:15.857Z,6.20
2023-04-09T03:10:59.946Z,6.20
2023-04-09T03:11:44.044Z,6.30
2023-04-09T03:12:25.888Z,6.00
2023-04-09T03:13:08.461Z,6.00
2023-04-09T03:13:50.403Z,6.00
2023-04-09T03:14:33.749Z,5.90
2023-04-09T03:15:17.038Z,5.90
2023-04-09T03:15:58.945Z,5.90
2023-04-09T03:16:41.353Z,5.90
2023-04-09T03:17:25.849Z,5.60
2023-04-09T03:18:10.108Z,6.10
2023-04-09T03:18:52.046Z,5.80
2023-04-09T03:19:34.027Z,5.90
2023-04-09T03:20:16.034Z,5.90
2023-04-09T03:20:57.988Z,6.20
2023-04-09T03:21:39.875Z,6.60
2023-04-09T03:22:23.989Z,5.50
2023-04-09T03:23:06.057Z,5.60
2023-04-09T03:23:48.064Z,5.70
2023-04-09T03:24:31.504Z,8.00
2023-04-09T03:25:13.507Z,5.70
2023-04-09T03:26:05.922Z,5.60
2023-04-09T03:26:50.057Z,5.70
2023-04-09T03:27:33.192Z,5.60
2023-04-09T03:28:14.981Z,5.60
2023-04-09T03:28:59.320Z,6.20
2023-04-09T03:29:41.094Z,5.70
2023-04-09T03:30:23.055Z,5.50
2023-04-09T03:31:06.981Z,5.40
2023-04-09T03:31:49.170Z,5.60
2023-04-09T03:32:31.250Z,5.60
2023-04-09T03:33:13.087Z,5.50
2023-04-09T03:33:54.979Z,5.50
2023-04-09T03:34:38.995Z,5.40
2023-04-09T03:35:21.084Z,5.60
2023-04-09T03:36:02.965Z,5.70
2023-04-09T03:36:44.989Z,5.30
2023-04-09T03:37:29.091Z,5.40
2023-04-09T03:38:11.297Z,5.50
2023-04-09T03:38:53.478Z,5.60
2023-04-09T03:39:35.557Z,5.60
2023-04-09T03:40:17.488Z,5.20
2023-04-09T03:40:59.260Z,5.50
2023-04-09T03:41:41.156Z,5.40
2023-04-09T03:42:23.591Z,5.40
2023-04-09T03:43:05.712Z,5.40
2023-04-09T03:43:47.501Z,5.50
2023-04-09T03:44:29.607Z,5.50
2023-04-09T03:45:11.522Z,5.60
2023-04-09T03:45:53.354Z,5.60
2023-04-09T03:46:35.170Z,5.70
2023-04-09T03:47:19.437Z,6.00
2023-04-09T03:48:01.346Z,5.40
2023-04-09T03:48:44.656Z,7.40
2023-04-09T03:49:26.664Z,5.70
2023-04-09T03:50:09.240Z,5.60
2023-04-09T03:50:53.565Z,5.20
2023-04-09T03:51:35.346Z,5.40
2023-04-09T03:52:17.184Z,5.40
2023-04-09T03:52:59.215Z,5.30
2023-04-09T03:53:44.238Z,5.40
2023-04-09T03:54:29.888Z,5.30
2023-04-09T03:55:11.733Z,5.40
2023-04-09T03:55:53.704Z,5.00
2023-04-09T03:56:35.650Z,5.20
2023-04-09T03:57:17.432Z,5.30
2023-04-09T03:57:59.401Z,5.20
2023-04-09T03:58:41.234Z,5.30
2023-04-09T03:59:23.785Z,5.40
2023-04-09T04:00:06.491Z,5.30
2023-04-09T04:00:48.878Z,5.30
2023-04-09T04:01:30.691Z,4.90
2023-04-09T04:02:12.607Z,5.30
2023-04-09T04:02:54.986Z,5.10
2023-04-09T04:03:37.161Z,5.20
2023-04-09T04:04:21.227Z,5.20
2023-04-09T04:05:05.668Z,5.10
2023-04-09T04:05:47.479Z,5.40
2023-04-09T04:06:29.327Z,5.30
2023-04-09T04:07:11.098Z,5.20
2023-04-09T04:07:53.280Z,5.20
2023-04-09T04:08:35.161Z,5.10
2023-04-09T04:09:19.223Z,5.20
2023-04-09T04:10:01.393Z,5.10
2023-04-09T04:10:43.709Z,5.10
2023-04-09T04:11:25.587Z,5.10
2023-04-09T04:12:07.418Z,5.10
2023-04-09T04:12:49.363Z,5.00
2023-04-09T04:13:31.325Z,7.60
2023-04-09T04:14:15.192Z,5.10
2023-04-09T04:14:59.540Z,5.20
2023-04-09T04:15:44.908Z,5.20
2023-04-09T04:16:26.894Z,5.00
2023-04-09T04:17:09.220Z,5.20
2023-04-09T04:17:51.064Z,5.50
2023-04-09T04:18:35.565Z,5.20
2023-04-09T04:19:17.497Z,5.10
2023-04-09T04:19:59.289Z,5.30
2023-04-09T04:20:41.439Z,5.40
2023-04-09T04:21:23.373Z,4.80
2023-04-09T04:22:05.233Z,5.20
2023-04-09T04:22:47.042Z,5.10
2023-04-09T04:23:28.980Z,5.10
2023-04-09T04:24:11.273Z,4.70
2023-04-09T04:24:53.390Z,5.10
2023-04-09T04:25:37.537Z,4.90
2023-04-09T04:26:19.379Z,5.10
2023-04-09T04:27:01.230Z,5.20
2023-04-09T04:27:43.422Z,4.70
2023-04-09T04:28:25.408Z,4.90
2023-04-09T04:29:07.280Z,4.80
2023-04-09T04:29:51.134Z,4.80
2023-04-09T04:30:32.932Z,5.00
2023-04-09T04:31:15.104Z,5.00
2023-04-09T04:31:56.942Z,5.00
2023-04-09T04:32:38.943Z,5.00
2023-04-09T04:33:20.878Z,5.00
2023-04-09T04:34:02.689Z,4.90
2023-04-09T04:34:48.349Z,5.10
2023-04-09T04:35:32.620Z,5.00
2023-04-09T04:36:17.205Z,5.30
2023-04-09T04:37:01.326Z,5.10
2023-04-09T04:37:45.485Z,4.80
2023-04-09T04:38:27.300Z,5.00
2023-04-09T04:39:11.455Z,4.90
2023-04-09T04:39:53.454Z,5.00
2023-04-09T04:40:35.430Z,4.70
2023-04-09T04:41:19.528Z,5.00
2023-04-09T04:42:01.399Z,4.90
2023-04-09T04:42:43.521Z,4.80
2023-04-09T04:43:25.449Z,4.90
2023-04-09T04:44:09.561Z,5.00
2023-04-09T04:44:51.408Z,5.10
2023-04-09T04:45:33.451Z,4.80
2023-04-09T04:46:15.432Z,5.00
2023-04-09T04:46:57.414Z,5.10
2023-04-09T04:47:39.270Z,5.00
2023-04-09T04:48:21.769Z,5.10
2023-04-09T04:49:03.804Z,4.70
2023-04-09T04:49:45.690Z,5.00
2023-04-09T04:50:27.480Z,4.80
2023-04-09T04:51:09.439Z,4.80
2023-04-09T04:51:51.477Z,4.90
2023-04-09T04:52:33.421Z,4.80
2023-04-09T04:53:15.334Z,5.20
2023-04-09T04:53:57.167Z,4.80
2023-04-09T04:54:39.008Z,5.00
2023-04-09T04:55:20.823Z,4.90
2023-04-09T04:56:02.599Z,5.00
2023-04-09T04:56:44.569Z,4.80
2023-04-09T04:57:26.379Z,4.80
2023-04-09T04:58:10.305Z,4.90
2023-04-09T04:58:52.281Z,4.90
2023-04-09T04:59:36.857Z,4.80
2023-04-09T05:00:18.958Z,4.90
2023-04-09T05:01:00.988Z,4.80
2023-04-09T05:01:42.963Z,5.00
2023-04-09T05:02:27.946Z,4.90
2023-04-09T05:03:10.270Z,5.30
2023-04-09T05:03:52.308Z,4.90
2023-04-09T05:04:34.562Z,4.70
2023-04-09T05:05:16.627Z,4.60
2023-04-09T05:05:58.600Z,4.70
2023-04-09T05:06:40.412Z,4.90
2023-04-09T05:07:24.282Z,4.80
2023-04-09T05:08:06.921Z,4.80
2023-04-09T05:08:48.769Z,4.80
2023-04-09T05:09:30.709Z,4.10
2023-04-09T05:10:12.527Z,5.00
2023-04-09T05:10:56.293Z,5.00
2023-04-09T05:11:40.992Z,4.90
2023-04-09T05:12:22.828Z,4.90
2023-04-09T05:13:04.627Z,5.00
2023-04-09T05:13:46.515Z,5.20
2023-04-09T05:14:28.653Z,5.00
2023-04-09T05:15:10.556Z,5.20
2023-04-09T05:15:54.732Z,5.20
2023-04-09T05:16:36.779Z,5.10
2023-04-09T05:17:18.708Z,5.10
2023-04-09T05:18:00.670Z,5.10
2023-04-09T05:18:42.489Z,5.30
2023-04-09T05:19:24.578Z,5.40
2023-04-09T05:20:07.132Z,5.60
2023-04-09T05:20:49.077Z,5.20
2023-04-09T05:21:31.924Z,5.40
2023-04-09T05:22:13.956Z,5.20
2023-04-09T05:22:55.840Z,5.40
2023-04-09T05:23:37.825Z,5.40
2023-04-09T05:24:19.650Z,4.30
2023-04-09T05:25:01.644Z,5.60
2023-04-09T05:25:43.702Z,5.50
2023-04-09T05:26:25.463Z,4.50
2023-04-09T05:27:09.539Z,5.50
2023-04-09T05:27:51.566Z,5.50
2023-04-09T05:28:33.575Z,5.40
2023-04-09T05:29:17.294Z,7.60
2023-04-09T05:30:00.742Z,5.50
2023-04-09T05:30:49.655Z,5.40
2023-04-09T05:31:31.765Z,5.70
2023-04-09T05:32:13.580Z,5.90
2023-04-09T05:32:55.541Z,5.80
2023-04-09T05:33:38.609Z,5.80
2023-04-09T05:34:20.620Z,5.60
2023-04-09T05:35:04.752Z,5.70
2023-04-09T05:35:46.722Z,5.90
2023-04-09T05:36:28.652Z,6.00
2023-04-09T05:37:10.824Z,6.00
2023-04-09T05:37:52.701Z,6.80
2023-04-09T05:38:35.011Z,6.00
2023-04-09T05:39:17.080Z,5.90
2023-04-09T05:39:59.142Z,5.90
2023-04-09T05:40:42.352Z,5.90
2023-04-09T05:41:24.197Z,6.00
2023-04-09T05:42:06.159Z,6.10
2023-04-09T05:42:48.153Z,5.80
2023-04-09T05:43:29.997Z,6.00
2023-04-09T05:44:12.234Z,6.00
2023-04-09T05:44:54.341Z,6.00
2023-04-09T05:45:36.130Z,6.20
2023-04-09T05:46:18.188Z,6.20
2023-04-09T05:47:00.171Z,6.10
2023-04-09T05:47:42.227Z,6.10
2023-04-09T05:48:24.287Z,6.00
2023-04-09T05:49:06.288Z,6.00
2023-04-09T05:49:48.426Z,6.10
2023-04-09T05:50:30.410Z,6.20
2023-04-09T05:51:12.796Z,6.20
2023-04-09T05:51:54.680Z,6.10
2023-04-09T05:52:36.791Z,6.30
2023-04-09T05:53:19.833Z,6.10
2023-04-09T05:54:02.822Z,6.30
2023-04-09T05:54:44.661Z,6.40
2023-04-09T05:55:28.824Z,6.20
2023-04-09T05:56:17.429Z,6.40
2023-04-09T05:56:59.338Z,6.20
2023-04-09T05:57:41.808Z,6.20
2023-04-09T05:58:24.106Z,6.40
2023-04-09T05:59:05.883Z,4.00
2023-04-09T05:59:47.849Z,6.30
2023-04-09T06:00:29.791Z,6.10
2023-04-09T06:01:11.892Z,6.10
2023-04-09T06:01:53.910Z,6.20
2023-04-09T06:02:35.845Z,6.20
2023-04-09T06:03:18.019Z,6.30
2023-04-09T06:04:00.259Z,6.10
2023-04-09T06:04:42.434Z,6.40
2023-04-09T06:05:24.412Z,6.50
2023-04-09T06:06:09.136Z,6.10
2023-04-09T06:06:54.431Z,6.30
2023-04-09T06:07:36.206Z,6.10
2023-04-09T06:08:18.030Z,6.40
2023-04-09T06:08:59.852Z,6.20
2023-04-09T06:09:44.120Z,6.60
2023-04-09T06:10:25.898Z,6.30
2023-04-09T06:11:13.189Z,6.40
2023-04-09T06:11:54.951Z,6.40
2023-04-09T06:12:36.928Z,7.20
2023-04-09T06:13:18.996Z,6.70
2023-04-09T06:14:00.833Z,6.60
2023-04-09T06:14:42.962Z,6.70
2023-04-09T06:15:24.767Z,6.60
2023-04-09T06:16:10.453Z,6.60
2023-04-09T06:16:52.401Z,7.00
2023-04-09T06:17:34.350Z,6.40
2023-04-09T06:18:16.281Z,6.50
2023-04-09T06:18:58.326Z,6.80
2023-04-09T06:19:40.369Z,6.40
2023-04-09T06:20:22.370Z,6.40
2023-04-09T06:21:06.059Z,6.60
2023-04-09T06:21:47.972Z,6.70
2023-04-09T06:22:29.787Z,6.60
2023-04-09T06:23:14.294Z,6.50
2023-04-09T06:23:56.109Z,6.60
2023-04-09T06:24:38.070Z,6.90
2023-04-09T06:25:20.069Z,6.50
2023-04-09T06:26:02.464Z,6.70
2023-04-09T06:26:44.450Z,6.60
2023-04-09T06:27:29.346Z,6.80
2023-04-09T06:28:11.513Z,6.60
2023-04-09T06:28:54.059Z,6.90
2023-04-09T06:29:37.986Z,6.90
2023-04-09T06:30:19.978Z,6.70
2023-04-09T06:31:04.274Z,6.60
2023-04-09T06:31:46.562Z,6.60
2023-04-09T06:32:28.574Z,6.90
2023-04-09T06:33:10.656Z,6.60
2023-04-09T06:33:52.906Z,6.70
2023-04-09T06:34:34.894Z,6.90
2023-04-09T06:35:19.106Z,6.70
2023-04-09T06:36:01.431Z,6.70
2023-04-09T06:36:44.549Z,7.40
2023-04-09T06:37:26.327Z,6.80
2023-04-09T06:38:10.112Z,6.80
2023-04-09T06:38:52.018Z,7.10
2023-04-09T06:39:33.895Z,6.90
2023-04-09T06:40:15.731Z,6.90
2023-04-09T06:41:00.564Z,7.00
2023-04-09T06:41:42.507Z,7.00
2023-04-09T06:42:24.517Z,7.00
2023-04-09T06:43:06.979Z,7.60
2023-04-09T06:43:49.174Z,7.40
2023-04-09T06:44:34.355Z,7.10
2023-04-09T06:45:16.213Z,7.30
2023-04-09T06:45:58.387Z,7.40
2023-04-09T06:46:40.627Z,7.60
2023-04-09T06:47:22.593Z,7.40
2023-04-09T06:48:05.023Z,7.50
2023-04-09T06:48:47.172Z,7.60
2023-04-09T06:49:28.966Z,7.60
2023-04-09T06:50:10.783Z,7.70
2023-04-09T06:50:52.648Z,7.90
2023-04-09T06:51:34.654Z,7.40
2023-04-09T06:52:16.713Z,7.70
2023-04-09T06:52:58.630Z,7.80
2023-04-09T06:53:40.656Z,8.10
2023-04-09T06:54:22.643Z,8.00
2023-04-09T06:55:05.055Z,7.70
2023-04-09T06:55:47.063Z,8.00
2023-04-09T06:56:29.080Z,7.60
2023-04-09T06:57:10.878Z,7.70
2023-04-09T06:57:52.697Z,8.10
2023-04-09T06:58:34.735Z,8.10
2023-04-09T06:59:18.931Z,8.80
2023-04-09T07:00:00.693Z,8.30
2023-04-09T07:00:42.678Z,8.30
2023-04-09T07:01:26.457Z,7.90
2023-04-09T07:02:09.209Z,8.00
2023-04-09T07:02:51.797Z,8.00
2023-04-09T07:03:33.975Z,7.90
2023-04-09T07:04:18.121Z,8.20
2023-04-09T07:04:59.964Z,8.20
2023-04-09T07:05:44.423Z,8.30
2023-04-09T07:06:26.445Z,8.30
2023-04-09T07:07:08.223Z,8.20
2023-04-09T07:07:50.057Z,8.40
2023-04-09T07:08:32.153Z,8.00
2023-04-09T07:09:14.222Z,8.50
2023-04-09T07:09:56.365Z,8.40
2023-04-09T07:10:38.343Z,8.70
2023-04-09T07:11:20.449Z,8.50
2023-04-09T07:12:02.223Z,8.40
2023-04-09T07:12:44.309Z,8.60
2023-04-09T07:13:26.181Z,8.60
2023-04-09T07:14:10.289Z,8.50
2023-04-09T07:14:52.231Z,8.80
2023-04-09T07:15:34.326Z,8.70
2023-04-09T07:16:16.205Z,8.60
2023-04-09T07:16:58.301Z,8.40
2023-04-09T07:17:40.306Z,8.90
2023-04-09T07:18:24.633Z,8.60
2023-04-09T07:19:07.555Z,8.80
2023-04-09T07:19:49.393Z,8.60
2023-04-09T07:20:31.214Z,8.90
2023-04-09T07:21:15.078Z,9.10
2023-04-09T07:21:56.888Z,9.10
2023-04-09T07:22:39.736Z,8.80
2023-04-09T07:23:22.478Z,9.10
2023-04-09T07:24:04.359Z,8.70
2023-04-09T07:24:47.227Z,9.20
2023-04-09T07:25:29.152Z,8.90
2023-04-09T07:26:11.405Z,8.90
2023-04-09T07:26:53.405Z,9.10
2023-04-09T07:27:35.903Z,9.00
2023-04-09T07:28:17.998Z,9.00
2023-04-09T07:29:00.015Z,8.90
2023-04-09T07:29:44.699Z,9.10
2023-04-09T07:30:26.619Z,9.10
2023-04-09T07:31:09.761Z,9.20
2023-04-09T07:31:51.627Z,9.30
2023-04-09T07:32:33.517Z,8.60
2023-04-09T07:33:15.422Z,9.00
2023-04-09T07:33:57.395Z,9.30
2023-04-09T07:34:39.416Z,9.30
2023-04-09T07:35:21.819Z,9.20
2023-04-09T07:36:03.968Z,9.50
2023-04-09T07:36:45.766Z,9.30
2023-04-09T07:37:27.834Z,9.10
2023-04-09T07:38:09.822Z,9.40
2023-04-09T07:38:51.819Z,9.20
2023-04-09T07:39:33.918Z,9.40
2023-04-09T07:40:18.693Z,9.50
2023-04-09T07:41:01.295Z,9.50
2023-04-09T07:41:43.378Z,9.50
2023-04-09T07:42:25.783Z,9.80
2023-04-09T07:43:07.641Z,9.40
2023-04-09T07:43:49.424Z,9.50
2023-04-09T07:44:36.399Z,9.60
2023-04-09T07:45:18.473Z,9.90
2023-04-09T07:46:00.487Z,9.80
2023-04-09T07:46:44.071Z,9.80
2023-04-09T07:47:26.979Z,9.70
2023-04-09T07:48:09.387Z,9.90
2023-04-09T07:48:53.752Z,10.00
2023-04-09T07:49:38.719Z,9.90
2023-04-09T07:50:20.557Z,9.90
2023-04-09T07:51:02.511Z,10.10
2023-04-09T07:51:44.323Z,10.10
2023-04-09T07:52:26.160Z,10.10
2023-04-09T07:53:08.052Z,10.00
2023-04-09T07:53:50.297Z,9.90
2023-04-09T07:54:34.789Z,9.80
2023-04-09T07:55:17.437Z,9.80
2023-04-09T07:56:00.369Z,10.00
2023-04-09T07:56:42.211Z,9.80
2023-04-09T07:57:24.197Z,9.70
2023-04-09T07:58:06.457Z,9.80
2023-04-09T07:58:49.323Z,10.00
2023-04-09T07:59:31.812Z,10.10
2023-04-09T08:00:16.633Z,9.70
2023-04-09T08:00:58.661Z,10.10
2023-04-09T08:01:40.727Z,10.20
2023-04-09T08:02:24.016Z,10.40
2023-04-09T08:03:06.478Z,10.20
2023-04-09T08:03:49.219Z,10.30
2023-04-09T08:04:32.637Z,10.50
2023-04-09T08:05:14.734Z,10.60
2023-04-09T08:05:56.546Z,10.60
2023-04-09T08:06:38.638Z,10.50
2023-04-09T08:07:20.743Z,10.60
2023-04-09T08:08:02.642Z,10.10
2023-04-09T08:08:44.779Z,10.20
2023-04-09T08:09:26.581Z,10.60
2023-04-09T08:10:13.950Z,10.50
2023-04-09T08:10:55.781Z,10.60
2023-04-09T08:11:37.616Z,10.70
2023-04-09T08:12:19.537Z,10.30
2023-04-09T08:13:03.647Z,10.80
2023-04-09T08:13:45.532Z,10.50
2023-04-09T08:14:29.421Z,10.20
2023-04-09T08:15:11.926Z,10.70
2023-04-09T08:15:53.725Z,10.90
2023-04-09T08:16:35.521Z,10.80
2023-04-09T08:17:19.652Z,10.60
2023-04-09T08:18:05.695Z,10.70
2023-04-09T08:18:47.949Z,10.50
2023-04-09T08:19:29.768Z,10.50
2023-04-09T08:20:12.788Z,10.90
2023-04-09T08:20:54.737Z,11.00
2023-04-09T08:21:43.164Z,10.70
2023-04-09T08:22:25.262Z,11.00
2023-04-09T08:23:07.020Z,11.10
2023-04-09T08:23:48.858Z,10.60
2023-04-09T08:24:31.280Z,11.10
2023-04-09T08:25:13.194Z,10.80
2023-04-09T08:25:55.016Z,11.00
2023-04-09T08:26:37.093Z,11.20
2023-04-09T08:27:19.720Z,11.10
2023-04-09T08:28:03.912Z,11.10
2023-04-09T08:28:45.807Z,11.10
2023-04-09T08:29:27.870Z,11.00
2023-04-09T08:30:10.385Z,11.10
2023-04-09T08:30:52.679Z,11.20
2023-04-09T08:31:35.005Z,11.00
2023-04-09T08:32:16.961Z,11.00
2023-04-09T08:32:58.804Z,11.20
2023-04-09T08:33:41.180Z,11.60
2023-04-09T08:34:23.255Z,11.50
2023-04-09T08:35:06.301Z,11.30
2023-04-09T08:35:48.392Z,11.50
2023-04-09T08:36:30.248Z,11.70
2023-04-09T08:37:12.093Z,11.70
2023-04-09T08:37:54.908Z,11.60
2023-04-09T08:38:37.040Z,11.70
2023-04-09T08:39:20.162Z,11.80
2023-04-09T08:40:02.151Z,11.90
2023-04-09T08:40:44.204Z,11.70
2023-04-09T08:41:29.226Z,11.60
2023-04-09T08:42:12.744Z,11.80
2023-04-09T08:42:58.711Z,11.60
2023-04-09T08:43:53.105Z,11.70
2023-04-09T08:44:39.227Z,11.80
2023-04-09T08:45:21.195Z,11.90
2023-04-09T08:46:03.420Z,12.10
2023-04-09T08:46:45.387Z,12.10
2023-04-09T08:47:27.921Z,11.70
2023-04-09T08:48:13.022Z,11.80
2023-04-09T08:48:55.144Z,11.90
2023-04-09T08:49:39.657Z,12.10
2023-04-09T08:50:22.680Z,11.90
2023-04-09T08:51:05.714Z,11.90
2023-04-09T08:51:49.142Z,12.30
2023-04-09T08:52:34.913Z,12.00
2023-04-09T08:53:18.971Z,12.30
2023-04-09T08:54:04.380Z,12.40
2023-04-09T08:54:46.863Z,12.00
2023-04-09T08:55:28.822Z,12.00
2023-04-09T08:56:10.882Z,12.10
2023-04-09T08:56:52.748Z,12.30
2023-04-09T08:57:38.951Z,12.30
2023-04-09T08:58:20.792Z,12.10
2023-04-09T08:59:02.730Z,12.30
2023-04-09T08:59:44.536Z,12.50
2023-04-09T09:00:27.191Z,12.40
2023-04-09T09:01:18.936Z,12.50
2023-04-09T09:02:10.741Z,12.50
2023-04-09T09:03:04.326Z,12.20
2023-04-09T09:03:56.834Z,12.40
2023-04-09T09:04:49.404Z,12.20
2023-04-09T09:05:51.564Z,12.40
2023-04-09T09:06:36.144Z,12.30
2023-04-09T09:07:18.048Z,12.20
2023-04-09T09:08:03.711Z,11.90
2023-04-09T09:08:48.796Z,12.20
2023-04-09T09:09:30.973Z,12.30
2023-04-09T09:10:12.956Z,12.20
2023-04-09T09:10:54.751Z,12.30
2023-04-09T09:11:38.736Z,12.60
2023-04-09T09:12:34.283Z,12.70
2023-04-09T09:13:26.429Z,12.40
2023-04-09T09:14:10.272Z,12.60
2023-04-09T09:14:52.281Z,12.70
2023-04-09T09:15:34.058Z,12.90
2023-04-09T09:16:16.514Z,12.80
2023-04-09T09:16:58.671Z,12.80
2023-04-09T09:17:54.959Z,12.70
2023-04-09T09:18:44.099Z,12.60
2023-04-09T09:19:26.116Z,11.80
2023-04-09T09:20:20.865Z,12.70
2023-04-09T09:21:20.326Z,12.80
2023-04-09T09:22:04.899Z,12.60
2023-04-09T09:22:54.565Z,12.70
2023-04-09T09:23:37.916Z,12.70
2023-04-09T09:24:19.660Z,12.50
2023-04-09T09:25:01.624Z,12.80
2023-04-09T09:25:44.073Z,12.80
2023-04-09T09:26:28.780Z,12.80
2023-04-09T09:27:10.594Z,13.00
2023-04-09T09:27:54.233Z,12.90
2023-04-09T09:28:36.557Z,13.10
2023-04-09T09:29:19.847Z,13.10
2023-04-09T09:30:01.996Z,13.20
2023-04-09T09:30:43.855Z,13.20
2023-04-09T09:31:26.412Z,13.30
2023-04-09T09:32:13.748Z,13.20
2023-04-09T09:33:12.117Z,13.30
2023-04-09T09:33:54.505Z,13.00
2023-04-09T09:34:36.439Z,13.00